sensor_id;sensor_type;location;lat;lon;timestamp;P1;durP1;ratioP1;P2;durP2;ratioP2
13263;SDS011;6700;51.988;7.646;2024-03-02T00:00:34;4.57;;;4.10;;
13263;SDS011;6700;51.988;7.646;2024-03-02T00:03:02;5.72;;;4.22;;
13263;SDS011;6700;51.988;7.646;2024-03-02T00:05:30;4.57;;;4.07;;
13263;SDS011;6700;51.988;7.646;2024-03-02T00:07:58;5.35;;;4.28;;
13263;SDS011;6700;51.988;7.646;2024-03-02T00:10:26;4.88;;;4.38;;
13263;SDS011;6700;51.988;7.646;2024-03-02T00:12:58;5.18;;;4.05;;
13263;SDS011;6700;51.988;7.646;2024-03-02T00:17:55;5.25;;;4.00;;
13263;SDS011;6700;51.988;7.646;2024-03-02T00:20:24;4.22;;;3.83;;
13263;SDS011;6700;51.988;7.646;2024-03-02T00:23:01;4.37;;;3.97;;
13263;SDS011;6700;51.988;7.646;2024-03-02T00:25:43;4.10;;;3.70;;
13263;SDS011;6700;51.988;7.646;2024-03-02T00:28:17;3.80;;;3.50;;
13263;SDS011;6700;51.988;7.646;2024-03-02T00:30:51;3.70;;;3.30;;
13263;SDS011;6700;51.988;7.646;2024-03-02T00:33:19;4.45;;;4.00;;
13263;SDS011;6700;51.988;7.646;2024-03-02T00:35:48;4.90;;;3.60;;
13263;SDS011;6700;51.988;7.646;2024-03-02T00:38:17;3.97;;;3.58;;
13263;SDS011;6700;51.988;7.646;2024-03-02T00:40:48;4.30;;;3.90;;
13263;SDS011;6700;51.988;7.646;2024-03-02T00:43:37;4.32;;;3.25;;
13263;SDS011;6700;51.988;7.646;2024-03-02T00:46:10;3.90;;;3.13;;
13263;SDS011;6700;51.988;7.646;2024-03-02T00:48:39;3.85;;;3.42;;
13263;SDS011;6700;51.988;7.646;2024-03-02T00:51:27;4.82;;;3.83;;
13263;SDS011;6700;51.988;7.646;2024-03-02T00:53:57;3.77;;;3.40;;
13263;SDS011;6700;51.988;7.646;2024-03-02T00:56:26;3.90;;;3.50;;
13263;SDS011;6700;51.988;7.646;2024-03-02T00:58:54;3.70;;;3.25;;
13263;SDS011;6700;51.988;7.646;2024-03-02T01:01:29;4.30;;;3.33;;
13263;SDS011;6700;51.988;7.646;2024-03-02T01:03:58;3.40;;;3.10;;
13263;SDS011;6700;51.988;7.646;2024-03-02T01:06:25;4.33;;;3.57;;
13263;SDS011;6700;51.988;7.646;2024-03-02T01:08:52;3.80;;;3.50;;
13263;SDS011;6700;51.988;7.646;2024-03-02T01:11:22;4.78;;;3.45;;
13263;SDS011;6700;51.988;7.646;2024-03-02T01:13:50;4.22;;;3.38;;
13263;SDS011;6700;51.988;7.646;2024-03-02T01:16:18;3.80;;;3.30;;
13263;SDS011;6700;51.988;7.646;2024-03-02T01:18:46;5.35;;;3.53;;
13263;SDS011;6700;51.988;7.646;2024-03-02T01:21:14;3.95;;;3.55;;
13263;SDS011;6700;51.988;7.646;2024-03-02T01:23:43;4.35;;;3.67;;
13263;SDS011;6700;51.988;7.646;2024-03-02T01:26:10;4.10;;;3.70;;
13263;SDS011;6700;51.988;7.646;2024-03-02T01:28:39;5.88;;;3.80;;
13263;SDS011;6700;51.988;7.646;2024-03-02T01:31:08;3.80;;;3.50;;
13263;SDS011;6700;51.988;7.646;2024-03-02T01:33:37;3.70;;;3.30;;
13263;SDS011;6700;51.988;7.646;2024-03-02T01:36:04;4.28;;;3.50;;
13263;SDS011;6700;51.988;7.646;2024-03-02T01:38:33;4.00;;;3.55;;
13263;SDS011;6700;51.988;7.646;2024-03-02T01:41:01;4.30;;;3.90;;
13263;SDS011;6700;51.988;7.646;2024-03-02T01:43:29;3.90;;;3.50;;
13263;SDS011;6700;51.988;7.646;2024-03-02T01:45:56;5.22;;;3.72;;
13263;SDS011;6700;51.988;7.646;2024-03-02T01:48:26;4.40;;;3.65;;
13263;SDS011;6700;51.988;7.646;2024-03-02T01:50:53;4.32;;;3.63;;
13263;SDS011;6700;51.988;7.646;2024-03-02T01:53:22;4.50;;;4.10;;
13263;SDS011;6700;51.988;7.646;2024-03-02T01:55:50;4.13;;;3.72;;
13263;SDS011;6700;51.988;7.646;2024-03-02T01:58:19;3.93;;;3.53;;
13263;SDS011;6700;51.988;7.646;2024-03-02T02:00:47;4.55;;;4.10;;
13263;SDS011;6700;51.988;7.646;2024-03-02T02:03:15;5.47;;;4.43;;
13263;SDS011;6700;51.988;7.646;2024-03-02T02:05:43;4.53;;;4.13;;
13263;SDS011;6700;51.988;7.646;2024-03-02T02:08:12;4.90;;;4.03;;
13263;SDS011;6700;51.988;7.646;2024-03-02T02:10:39;4.50;;;4.05;;
13263;SDS011;6700;51.988;7.646;2024-03-02T02:13:06;4.78;;;4.28;;
13263;SDS011;6700;51.988;7.646;2024-03-02T02:15:35;5.20;;;4.47;;
13263;SDS011;6700;51.988;7.646;2024-03-02T02:18:03;4.65;;;4.13;;
13263;SDS011;6700;51.988;7.646;2024-03-02T02:20:32;6.57;;;4.00;;
13263;SDS011;6700;51.988;7.646;2024-03-02T02:23:00;5.00;;;3.65;;
13263;SDS011;6700;51.988;7.646;2024-03-02T02:25:28;5.88;;;3.97;;
13263;SDS011;6700;51.988;7.646;2024-03-02T02:27:57;5.00;;;4.20;;
13263;SDS011;6700;51.988;7.646;2024-03-02T02:30:29;4.60;;;3.90;;
13263;SDS011;6700;51.988;7.646;2024-03-02T02:32:56;4.72;;;4.32;;
13263;SDS011;6700;51.988;7.646;2024-03-02T02:35:25;4.95;;;4.20;;
13263;SDS011;6700;51.988;7.646;2024-03-02T02:37:53;4.72;;;4.30;;
13263;SDS011;6700;51.988;7.646;2024-03-02T02:40:25;4.90;;;4.28;;
13263;SDS011;6700;51.988;7.646;2024-03-02T02:42:53;6.05;;;4.40;;
13263;SDS011;6700;51.988;7.646;2024-03-02T02:45:24;4.80;;;4.30;;
13263;SDS011;6700;51.988;7.646;2024-03-02T02:47:51;5.72;;;4.53;;
13263;SDS011;6700;51.988;7.646;2024-03-02T02:50:20;5.13;;;4.30;;
13263;SDS011;6700;51.988;7.646;2024-03-02T02:52:49;5.10;;;4.55;;
13263;SDS011;6700;51.988;7.646;2024-03-02T02:55:18;5.38;;;4.60;;
13263;SDS011;6700;51.988;7.646;2024-03-02T02:57:45;5.05;;;4.55;;
13263;SDS011;6700;51.988;7.646;2024-03-02T03:00:14;6.78;;;4.72;;
13263;SDS011;6700;51.988;7.646;2024-03-02T03:02:44;4.97;;;4.47;;
13263;SDS011;6700;51.988;7.646;2024-03-02T03:05:16;5.45;;;4.85;;
13263;SDS011;6700;51.988;7.646;2024-03-02T03:07:45;6.18;;;4.95;;
13263;SDS011;6700;51.988;7.646;2024-03-02T03:10:17;5.82;;;4.88;;
13263;SDS011;6700;51.988;7.646;2024-03-02T03:12:48;5.07;;;4.57;;
13263;SDS011;6700;51.988;7.646;2024-03-02T03:15:16;5.68;;;4.70;;
13263;SDS011;6700;51.988;7.646;2024-03-02T03:17:45;5.18;;;4.60;;
13263;SDS011;6700;51.988;7.646;2024-03-02T03:20:14;4.95;;;4.45;;
13263;SDS011;6700;51.988;7.646;2024-03-02T03:22:42;6.53;;;4.60;;
13263;SDS011;6700;51.988;7.646;2024-03-02T03:25:11;4.90;;;4.40;;
13263;SDS011;6700;51.988;7.646;2024-03-02T03:27:40;4.80;;;4.30;;
13263;SDS011;6700;51.988;7.646;2024-03-02T03:30:08;5.00;;;4.45;;
13263;SDS011;6700;51.988;7.646;2024-03-02T03:32:36;5.60;;;4.72;;
13263;SDS011;6700;51.988;7.646;2024-03-02T03:35:04;5.63;;;4.88;;
13263;SDS011;6700;51.988;7.646;2024-03-02T03:37:33;4.80;;;4.30;;
13263;SDS011;6700;51.988;7.646;2024-03-02T03:40:05;5.22;;;4.68;;
13263;SDS011;6700;51.988;7.646;2024-03-02T03:42:37;5.20;;;4.70;;
13263;SDS011;6700;51.988;7.646;2024-03-02T03:45:05;4.93;;;4.45;;
13263;SDS011;6700;51.988;7.646;2024-03-02T03:47:35;4.90;;;4.40;;
13263;SDS011;6700;51.988;7.646;2024-03-02T03:50:02;6.68;;;5.07;;
13263;SDS011;6700;51.988;7.646;2024-03-02T03:52:34;5.40;;;4.63;;
13263;SDS011;6700;51.988;7.646;2024-03-02T03:55:03;5.13;;;4.53;;
13263;SDS011;6700;51.988;7.646;2024-03-02T03:57:32;5.53;;;4.45;;
13263;SDS011;6700;51.988;7.646;2024-03-02T03:59:59;5.30;;;4.53;;
13263;SDS011;6700;51.988;7.646;2024-03-02T04:02:26;4.43;;;4.03;;
13263;SDS011;6700;51.988;7.646;2024-03-02T04:04:54;4.43;;;4.00;;
13263;SDS011;6700;51.988;7.646;2024-03-02T04:07:21;4.97;;;4.10;;
13263;SDS011;6700;51.988;7.646;2024-03-02T04:09:51;4.32;;;3.92;;
13263;SDS011;6700;51.988;7.646;2024-03-02T04:12:19;5.32;;;4.40;;
13263;SDS011;6700;51.988;7.646;2024-03-02T04:14:47;5.13;;;4.63;;
13263;SDS011;6700;51.988;7.646;2024-03-02T04:17:14;4.53;;;4.13;;
13263;SDS011;6700;51.988;7.646;2024-03-02T04:19:41;4.97;;;4.47;;
13263;SDS011;6700;51.988;7.646;2024-03-02T04:22:09;4.45;;;4.05;;
13263;SDS011;6700;51.988;7.646;2024-03-02T04:24:46;4.68;;;4.20;;
13263;SDS011;6700;51.988;7.646;2024-03-02T04:27:15;5.22;;;3.80;;
13263;SDS011;6700;51.988;7.646;2024-03-02T04:29:42;4.78;;;4.20;;
13263;SDS011;6700;51.988;7.646;2024-03-02T04:32:09;6.83;;;4.23;;
13263;SDS011;6700;51.988;7.646;2024-03-02T04:34:38;5.68;;;4.47;;
13263;SDS011;6700;51.988;7.646;2024-03-02T04:37:05;4.72;;;4.32;;
13263;SDS011;6700;51.988;7.646;2024-03-02T04:39:34;5.03;;;4.30;;
13263;SDS011;6700;51.988;7.646;2024-03-02T04:42:01;4.63;;;4.20;;
13263;SDS011;6700;51.988;7.646;2024-03-02T04:44:29;5.57;;;4.47;;
13263;SDS011;6700;51.988;7.646;2024-03-02T04:46:56;5.80;;;4.33;;
13263;SDS011;6700;51.988;7.646;2024-03-02T04:49:24;4.97;;;4.47;;
13263;SDS011;6700;51.988;7.646;2024-03-02T04:51:52;5.82;;;4.20;;
13263;SDS011;6700;51.988;7.646;2024-03-02T04:54:19;4.55;;;4.15;;
13263;SDS011;6700;51.988;7.646;2024-03-02T04:56:48;4.60;;;4.10;;
13263;SDS011;6700;51.988;7.646;2024-03-02T04:59:16;5.45;;;4.70;;
13263;SDS011;6700;51.988;7.646;2024-03-02T05:01:44;5.38;;;4.50;;
13263;SDS011;6700;51.988;7.646;2024-03-02T05:04:12;4.55;;;4.15;;
13263;SDS011;6700;51.988;7.646;2024-03-02T05:06:39;4.68;;;3.88;;
13263;SDS011;6700;51.988;7.646;2024-03-02T05:09:07;4.77;;;4.10;;
13263;SDS011;6700;51.988;7.646;2024-03-02T05:11:35;4.83;;;4.33;;
13263;SDS011;6700;51.988;7.646;2024-03-02T05:14:16;4.23;;;3.73;;
13263;SDS011;6700;51.988;7.646;2024-03-02T05:16:45;5.13;;;4.10;;
13263;SDS011;6700;51.988;7.646;2024-03-02T05:19:12;5.43;;;4.10;;
13263;SDS011;6700;51.988;7.646;2024-03-02T05:21:39;6.05;;;3.97;;
13263;SDS011;6700;51.988;7.646;2024-03-02T05:24:07;5.05;;;4.25;;
13263;SDS011;6700;51.988;7.646;2024-03-02T05:26:35;5.85;;;4.00;;
13263;SDS011;6700;51.988;7.646;2024-03-02T05:29:03;5.45;;;4.28;;
13263;SDS011;6700;51.988;7.646;2024-03-02T05:31:30;4.57;;;4.18;;
13263;SDS011;6700;51.988;7.646;2024-03-02T05:33:57;4.85;;;4.03;;
13263;SDS011;6700;51.988;7.646;2024-03-02T05:36:25;5.05;;;4.32;;
13263;SDS011;6700;51.988;7.646;2024-03-02T05:38:53;4.17;;;3.57;;
13263;SDS011;6700;51.988;7.646;2024-03-02T05:41:21;5.30;;;4.10;;
13263;SDS011;6700;51.988;7.646;2024-03-02T05:43:48;4.30;;;3.90;;
13263;SDS011;6700;51.988;7.646;2024-03-02T05:46:16;4.50;;;4.00;;
13263;SDS011;6700;51.988;7.646;2024-03-02T05:48:44;4.25;;;3.85;;
13263;SDS011;6700;51.988;7.646;2024-03-02T05:51:13;4.97;;;4.03;;
13263;SDS011;6700;51.988;7.646;2024-03-02T05:53:40;4.57;;;4.10;;
13263;SDS011;6700;51.988;7.646;2024-03-02T05:56:08;4.32;;;3.92;;
13263;SDS011;6700;51.988;7.646;2024-03-02T05:58:35;4.13;;;3.70;;
13263;SDS011;6700;51.988;7.646;2024-03-02T06:01:05;5.77;;;4.13;;
13263;SDS011;6700;51.988;7.646;2024-03-02T06:03:33;5.25;;;4.10;;
13263;SDS011;6700;51.988;7.646;2024-03-02T06:06:02;7.10;;;4.50;;
13263;SDS011;6700;51.988;7.646;2024-03-02T06:08:29;5.43;;;4.13;;
13263;SDS011;6700;51.988;7.646;2024-03-02T06:10:57;5.05;;;4.03;;
13263;SDS011;6700;51.988;7.646;2024-03-02T06:13:24;4.63;;;4.23;;
13263;SDS011;6700;51.988;7.646;2024-03-02T06:15:52;4.93;;;4.43;;
13263;SDS011;6700;51.988;7.646;2024-03-02T06:18:21;5.10;;;4.60;;
13263;SDS011;6700;51.988;7.646;2024-03-02T06:20:48;7.10;;;5.00;;
13263;SDS011;6700;51.988;7.646;2024-03-02T06:23:15;6.78;;;5.20;;
13263;SDS011;6700;51.988;7.646;2024-03-02T06:25:42;5.82;;;5.22;;
13263;SDS011;6700;51.988;7.646;2024-03-02T06:28:11;6.18;;;4.88;;
13263;SDS011;6700;51.988;7.646;2024-03-02T06:30:41;4.80;;;4.28;;
13263;SDS011;6700;51.988;7.646;2024-03-02T06:33:10;7.00;;;4.82;;
13263;SDS011;6700;51.988;7.646;2024-03-02T06:35:37;4.70;;;4.20;;
13263;SDS011;6700;51.988;7.646;2024-03-02T06:38:06;4.72;;;4.32;;
13263;SDS011;6700;51.988;7.646;2024-03-02T06:40:35;5.43;;;4.20;;
13263;SDS011;6700;51.988;7.646;2024-03-02T06:43:05;8.68;;;4.32;;
13263;SDS011;6700;51.988;7.646;2024-03-02T06:45:32;7.03;;;4.40;;
13263;SDS011;6700;51.988;7.646;2024-03-02T06:48:02;6.53;;;4.40;;
13263;SDS011;6700;51.988;7.646;2024-03-02T06:50:29;6.00;;;4.43;;
13263;SDS011;6700;51.988;7.646;2024-03-02T06:52:57;5.93;;;4.43;;
13263;SDS011;6700;51.988;7.646;2024-03-02T06:55:24;5.80;;;4.47;;
13263;SDS011;6700;51.988;7.646;2024-03-02T06:57:52;6.75;;;5.22;;
13263;SDS011;6700;51.988;7.646;2024-03-02T07:00:21;13.85;;;8.77;;
13263;SDS011;6700;51.988;7.646;2024-03-02T07:02:49;7.55;;;6.32;;
13263;SDS011;6700;51.988;7.646;2024-03-02T07:05:16;6.55;;;5.30;;
13263;SDS011;6700;51.988;7.646;2024-03-02T07:07:45;6.43;;;5.00;;
13263;SDS011;6700;51.988;7.646;2024-03-02T07:10:12;6.32;;;4.95;;
13263;SDS011;6700;51.988;7.646;2024-03-02T07:12:40;5.50;;;4.68;;
13263;SDS011;6700;51.988;7.646;2024-03-02T07:15:08;5.17;;;4.60;;
13263;SDS011;6700;51.988;7.646;2024-03-02T07:17:56;6.68;;;5.25;;
13263;SDS011;6700;51.988;7.646;2024-03-02T07:20:23;6.35;;;5.13;;
13263;SDS011;6700;51.988;7.646;2024-03-02T07:22:51;6.20;;;5.32;;
13263;SDS011;6700;51.988;7.646;2024-03-02T07:25:18;6.50;;;5.70;;
13263;SDS011;6700;51.988;7.646;2024-03-02T07:27:48;5.53;;;4.68;;
13263;SDS011;6700;51.988;7.646;2024-03-02T07:30:15;6.90;;;5.35;;
13263;SDS011;6700;51.988;7.646;2024-03-02T07:32:43;6.72;;;5.35;;
13263;SDS011;6700;51.988;7.646;2024-03-02T07:35:12;6.57;;;5.18;;
13263;SDS011;6700;51.988;7.646;2024-03-02T07:37:41;5.60;;;4.70;;
13263;SDS011;6700;51.988;7.646;2024-03-02T07:40:10;5.75;;;5.03;;
13263;SDS011;6700;51.988;7.646;2024-03-02T07:42:42;7.35;;;4.65;;
13263;SDS011;6700;51.988;7.646;2024-03-02T07:45:09;5.93;;;4.50;;
13263;SDS011;6700;51.988;7.646;2024-03-02T07:47:37;5.15;;;4.47;;
13263;SDS011;6700;51.988;7.646;2024-03-02T07:50:04;6.40;;;4.40;;
13263;SDS011;6700;51.988;7.646;2024-03-02T07:52:35;4.35;;;3.95;;
13263;SDS011;6700;51.988;7.646;2024-03-02T07:55:02;4.82;;;4.18;;
13263;SDS011;6700;51.988;7.646;2024-03-02T07:57:31;4.97;;;4.10;;
13263;SDS011;6700;51.988;7.646;2024-03-02T08:00:00;6.07;;;4.50;;
13263;SDS011;6700;51.988;7.646;2024-03-02T08:02:29;9.27;;;4.50;;
13263;SDS011;6700;51.988;7.646;2024-03-02T08:04:57;6.20;;;4.90;;
13263;SDS011;6700;51.988;7.646;2024-03-02T08:07:25;5.00;;;4.00;;
13263;SDS011;6700;51.988;7.646;2024-03-02T08:09:52;4.55;;;3.95;;
13263;SDS011;6700;51.988;7.646;2024-03-02T08:12:19;5.70;;;4.10;;
13263;SDS011;6700;51.988;7.646;2024-03-02T08:14:49;6.82;;;4.13;;
13263;SDS011;6700;51.988;7.646;2024-03-02T08:17:17;6.95;;;4.05;;
13263;SDS011;6700;51.988;7.646;2024-03-02T08:19:44;5.85;;;3.95;;
13263;SDS011;6700;51.988;7.646;2024-03-02T08:22:15;7.30;;;4.30;;
13263;SDS011;6700;51.988;7.646;2024-03-02T08:24:42;4.30;;;3.90;;
13263;SDS011;6700;51.988;7.646;2024-03-02T08:27:09;5.82;;;3.67;;
13263;SDS011;6700;51.988;7.646;2024-03-02T08:29:36;4.80;;;3.85;;
13263;SDS011;6700;51.988;7.646;2024-03-02T08:32:04;4.82;;;3.97;;
13263;SDS011;6700;51.988;7.646;2024-03-02T08:34:33;4.68;;;3.72;;
13263;SDS011;6700;51.988;7.646;2024-03-02T08:37:02;7.38;;;4.10;;
13263;SDS011;6700;51.988;7.646;2024-03-02T08:39:29;8.30;;;4.47;;
13263;SDS011;6700;51.988;7.646;2024-03-02T08:41:57;4.82;;;4.07;;
13263;SDS011;6700;51.988;7.646;2024-03-02T08:44:25;5.55;;;4.15;;
13263;SDS011;6700;51.988;7.646;2024-03-02T08:46:54;6.07;;;3.93;;
13263;SDS011;6700;51.988;7.646;2024-03-02T08:49:21;4.75;;;3.67;;
13263;SDS011;6700;51.988;7.646;2024-03-02T08:51:49;4.03;;;3.63;;
13263;SDS011;6700;51.988;7.646;2024-03-02T08:54:21;4.47;;;3.83;;
13263;SDS011;6700;51.988;7.646;2024-03-02T08:56:49;4.00;;;3.60;;
13263;SDS011;6700;51.988;7.646;2024-03-02T08:59:17;4.65;;;3.92;;
13263;SDS011;6700;51.988;7.646;2024-03-02T09:01:44;3.92;;;3.53;;
13263;SDS011;6700;51.988;7.646;2024-03-02T09:04:11;3.97;;;3.38;;
13263;SDS011;6700;51.988;7.646;2024-03-02T09:06:39;4.55;;;4.15;;
13263;SDS011;6700;51.988;7.646;2024-03-02T09:09:07;4.50;;;3.90;;
13263;SDS011;6700;51.988;7.646;2024-03-02T09:11:37;3.85;;;3.40;;
13263;SDS011;6700;51.988;7.646;2024-03-02T09:14:05;3.90;;;3.50;;
13263;SDS011;6700;51.988;7.646;2024-03-02T09:16:33;7.05;;;5.72;;
13263;SDS011;6700;51.988;7.646;2024-03-02T09:19:00;5.18;;;3.50;;
13263;SDS011;6700;51.988;7.646;2024-03-02T09:21:28;5.57;;;3.70;;
13263;SDS011;6700;51.988;7.646;2024-03-02T09:23:56;4.10;;;3.20;;
13263;SDS011;6700;51.988;7.646;2024-03-02T09:26:25;4.28;;;3.35;;
13263;SDS011;6700;51.988;7.646;2024-03-02T09:28:54;4.90;;;3.33;;
13263;SDS011;6700;51.988;7.646;2024-03-02T09:31:22;3.95;;;3.00;;
13263;SDS011;6700;51.988;7.646;2024-03-02T09:33:50;3.65;;;3.20;;
13263;SDS011;6700;51.988;7.646;2024-03-02T09:36:18;4.03;;;2.95;;
13263;SDS011;6700;51.988;7.646;2024-03-02T09:38:45;4.07;;;3.03;;
13263;SDS011;6700;51.988;7.646;2024-03-02T09:41:14;3.95;;;3.10;;
13263;SDS011;6700;51.988;7.646;2024-03-02T09:43:42;4.53;;;3.20;;
13263;SDS011;6700;51.988;7.646;2024-03-02T09:46:09;3.20;;;2.90;;
13263;SDS011;6700;51.988;7.646;2024-03-02T09:48:39;3.92;;;2.92;;
13263;SDS011;6700;51.988;7.646;2024-03-02T09:51:07;4.25;;;3.08;;
13263;SDS011;6700;51.988;7.646;2024-03-02T09:53:40;4.22;;;2.80;;
13263;SDS011;6700;51.988;7.646;2024-03-02T09:56:08;5.90;;;3.30;;
13263;SDS011;6700;51.988;7.646;2024-03-02T09:58:35;3.70;;;2.90;;
13263;SDS011;6700;51.988;7.646;2024-03-02T10:01:05;3.13;;;2.80;;
13263;SDS011;6700;51.988;7.646;2024-03-02T10:03:33;3.00;;;2.63;;
13263;SDS011;6700;51.988;7.646;2024-03-02T10:06:22;3.30;;;2.40;;
13263;SDS011;6700;51.988;7.646;2024-03-02T10:08:48;3.03;;;2.50;;
13263;SDS011;6700;51.988;7.646;2024-03-02T10:11:33;3.50;;;2.72;;
13263;SDS011;6700;51.988;7.646;2024-03-02T10:16:34;3.05;;;2.40;;
13263;SDS011;6700;51.988;7.646;2024-03-02T10:19:15;3.10;;;2.25;;
13263;SDS011;6700;51.988;7.646;2024-03-02T10:21:46;2.80;;;2.50;;
13263;SDS011;6700;51.988;7.646;2024-03-02T10:24:18;2.60;;;2.40;;
13263;SDS011;6700;51.988;7.646;2024-03-02T10:26:47;3.88;;;2.60;;
13263;SDS011;6700;51.988;7.646;2024-03-02T10:29:15;4.00;;;3.00;;
13263;SDS011;6700;51.988;7.646;2024-03-02T10:31:44;3.70;;;2.58;;
13263;SDS011;6700;51.988;7.646;2024-03-02T10:34:15;3.33;;;2.50;;
13263;SDS011;6700;51.988;7.646;2024-03-02T10:36:44;2.63;;;2.43;;
13263;SDS011;6700;51.988;7.646;2024-03-02T10:39:15;4.57;;;2.33;;
13263;SDS011;6700;51.988;7.646;2024-03-02T10:41:42;2.88;;;2.58;;
13263;SDS011;6700;51.988;7.646;2024-03-02T10:44:10;3.13;;;2.63;;
13263;SDS011;6700;51.988;7.646;2024-03-02T10:46:38;2.83;;;2.40;;
13263;SDS011;6700;51.988;7.646;2024-03-02T10:49:05;2.90;;;2.60;;
13263;SDS011;6700;51.988;7.646;2024-03-02T10:51:34;3.65;;;2.50;;
13263;SDS011;6700;51.988;7.646;2024-03-02T10:54:04;3.08;;;2.40;;
13263;SDS011;6700;51.988;7.646;2024-03-02T10:56:35;3.50;;;2.50;;
13263;SDS011;6700;51.988;7.646;2024-03-02T11:01:32;3.22;;;2.88;;
13263;SDS011;6700;51.988;7.646;2024-03-02T11:04:02;3.75;;;2.50;;
13263;SDS011;6700;51.988;7.646;2024-03-02T11:06:29;3.17;;;2.35;;
13263;SDS011;6700;51.988;7.646;2024-03-02T11:09:00;2.90;;;2.20;;
13263;SDS011;6700;51.988;7.646;2024-03-02T11:11:29;3.28;;;2.20;;
13263;SDS011;6700;51.988;7.646;2024-03-02T11:13:58;3.50;;;2.30;;
13263;SDS011;6700;51.988;7.646;2024-03-02T11:16:38;2.58;;;2.38;;
13263;SDS011;6700;51.988;7.646;2024-03-02T11:19:13;3.13;;;2.00;;
13263;SDS011;6700;51.988;7.646;2024-03-02T11:27:05;4.30;;;2.45;;
13263;SDS011;6700;51.988;7.646;2024-03-02T11:32:16;2.28;;;1.90;;
13263;SDS011;6700;51.988;7.646;2024-03-02T11:34:48;2.72;;;2.10;;
13263;SDS011;6700;51.988;7.646;2024-03-02T11:37:16;2.58;;;2.38;;
13263;SDS011;6700;51.988;7.646;2024-03-02T11:39:44;3.58;;;2.20;;
13263;SDS011;6700;51.988;7.646;2024-03-02T11:42:13;2.92;;;2.20;;
13263;SDS011;6700;51.988;7.646;2024-03-02T11:44:45;2.60;;;2.13;;
13263;SDS011;6700;51.988;7.646;2024-03-02T11:47:14;2.75;;;2.33;;
13263;SDS011;6700;51.988;7.646;2024-03-02T11:52:09;2.70;;;1.98;;
13263;SDS011;6700;51.988;7.646;2024-03-02T11:54:38;3.42;;;2.17;;
13263;SDS011;6700;51.988;7.646;2024-03-02T11:57:13;3.13;;;1.77;;
13263;SDS011;6700;51.988;7.646;2024-03-02T11:59:43;2.67;;;1.98;;
13263;SDS011;6700;51.988;7.646;2024-03-02T12:02:14;3.03;;;2.10;;
13263;SDS011;6700;51.988;7.646;2024-03-02T12:04:43;3.03;;;2.00;;
13263;SDS011;6700;51.988;7.646;2024-03-02T12:07:12;2.45;;;2.10;;
13263;SDS011;6700;51.988;7.646;2024-03-02T12:09:45;2.50;;;2.05;;
13263;SDS011;6700;51.988;7.646;2024-03-02T12:12:12;2.45;;;1.85;;
13263;SDS011;6700;51.988;7.646;2024-03-02T12:14:49;3.95;;;2.20;;
13263;SDS011;6700;51.988;7.646;2024-03-02T12:17:16;2.30;;;1.90;;
13263;SDS011;6700;51.988;7.646;2024-03-02T12:19:44;2.15;;;1.95;;
13263;SDS011;6700;51.988;7.646;2024-03-02T12:22:12;2.45;;;1.83;;
13263;SDS011;6700;51.988;7.646;2024-03-02T12:24:39;2.33;;;1.90;;
13263;SDS011;6700;51.988;7.646;2024-03-02T12:27:08;1.75;;;1.60;;
13263;SDS011;6700;51.988;7.646;2024-03-02T12:29:35;1.98;;;1.85;;
13263;SDS011;6700;51.988;7.646;2024-03-02T12:32:04;2.13;;;1.93;;
13263;SDS011;6700;51.988;7.646;2024-03-02T12:34:33;2.65;;;1.80;;
13263;SDS011;6700;51.988;7.646;2024-03-02T12:37:01;2.55;;;1.65;;
13263;SDS011;6700;51.988;7.646;2024-03-02T12:39:29;1.58;;;1.38;;
13263;SDS011;6700;51.988;7.646;2024-03-02T12:41:59;2.45;;;1.60;;
13263;SDS011;6700;51.988;7.646;2024-03-02T12:44:26;2.03;;;1.65;;
13263;SDS011;6700;51.988;7.646;2024-03-02T12:46:53;1.90;;;1.60;;
13263;SDS011;6700;51.988;7.646;2024-03-02T12:49:25;2.35;;;1.63;;
13263;SDS011;6700;51.988;7.646;2024-03-02T12:51:55;1.70;;;1.60;;
13263;SDS011;6700;51.988;7.646;2024-03-02T12:57:02;2.08;;;1.55;;
13263;SDS011;6700;51.988;7.646;2024-03-02T12:59:29;1.50;;;1.40;;
13263;SDS011;6700;51.988;7.646;2024-03-02T13:01:57;1.88;;;1.48;;
13263;SDS011;6700;51.988;7.646;2024-03-02T13:07:11;4.25;;;2.05;;
13263;SDS011;6700;51.988;7.646;2024-03-02T13:09:40;3.38;;;1.58;;
13263;SDS011;6700;51.988;7.646;2024-03-02T13:12:07;2.03;;;1.83;;
13263;SDS011;6700;51.988;7.646;2024-03-02T13:14:37;2.53;;;1.60;;
13263;SDS011;6700;51.988;7.646;2024-03-02T13:17:04;1.90;;;1.70;;
13263;SDS011;6700;51.988;7.646;2024-03-02T13:19:33;1.73;;;1.55;;
13263;SDS011;6700;51.988;7.646;2024-03-02T13:22:00;2.10;;;1.65;;
13263;SDS011;6700;51.988;7.646;2024-03-02T13:24:30;2.05;;;1.50;;
13263;SDS011;6700;51.988;7.646;2024-03-02T13:26:59;1.65;;;1.55;;
13263;SDS011;6700;51.988;7.646;2024-03-02T13:29:27;1.90;;;1.50;;
13263;SDS011;6700;51.988;7.646;2024-03-02T13:31:54;2.27;;;1.73;;
13263;SDS011;6700;51.988;7.646;2024-03-02T13:36:57;1.80;;;1.70;;
13263;SDS011;6700;51.988;7.646;2024-03-02T13:39:27;1.98;;;1.60;;
13263;SDS011;6700;51.988;7.646;2024-03-02T13:42:00;2.03;;;1.75;;
13263;SDS011;6700;51.988;7.646;2024-03-02T13:44:33;1.90;;;1.70;;
13263;SDS011;6700;51.988;7.646;2024-03-02T13:47:00;1.65;;;1.55;;
13263;SDS011;6700;51.988;7.646;2024-03-02T13:49:30;2.15;;;1.70;;
13263;SDS011;6700;51.988;7.646;2024-03-02T13:52:04;2.50;;;1.60;;
13263;SDS011;6700;51.988;7.646;2024-03-02T13:54:39;2.20;;;1.60;;
13263;SDS011;6700;51.988;7.646;2024-03-02T13:57:08;1.80;;;1.70;;
13263;SDS011;6700;51.988;7.646;2024-03-02T14:03:08;1.70;;;1.60;;
13263;SDS011;6700;51.988;7.646;2024-03-02T14:05:36;1.50;;;1.40;;
13263;SDS011;6700;51.988;7.646;2024-03-02T14:08:04;1.55;;;1.45;;
13263;SDS011;6700;51.988;7.646;2024-03-02T14:10:32;1.90;;;1.63;;
13263;SDS011;6700;51.988;7.646;2024-03-02T14:13:00;1.98;;;1.30;;
13263;SDS011;6700;51.988;7.646;2024-03-02T14:15:28;1.85;;;1.40;;
13263;SDS011;6700;51.988;7.646;2024-03-02T14:17:59;1.60;;;1.50;;
13263;SDS011;6700;51.988;7.646;2024-03-02T14:20:26;1.50;;;1.40;;
13263;SDS011;6700;51.988;7.646;2024-03-02T14:22:54;1.50;;;1.40;;
13263;SDS011;6700;51.988;7.646;2024-03-02T14:25:24;2.28;;;1.55;;
13263;SDS011;6700;51.988;7.646;2024-03-02T14:27:51;1.38;;;1.27;;
13263;SDS011;6700;51.988;7.646;2024-03-02T14:30:38;1.50;;;1.40;;
13263;SDS011;6700;51.988;7.646;2024-03-02T14:33:05;1.98;;;1.67;;
13263;SDS011;6700;51.988;7.646;2024-03-02T14:35:33;1.55;;;1.45;;
13263;SDS011;6700;51.988;7.646;2024-03-02T14:38:00;1.70;;;1.60;;
13263;SDS011;6700;51.988;7.646;2024-03-02T14:40:27;1.92;;;1.52;;
13263;SDS011;6700;51.988;7.646;2024-03-02T14:42:56;1.67;;;1.50;;
13263;SDS011;6700;51.988;7.646;2024-03-02T14:45:23;2.80;;;2.05;;
13263;SDS011;6700;51.988;7.646;2024-03-02T14:47:52;3.00;;;1.60;;
13263;SDS011;6700;51.988;7.646;2024-03-02T14:50:30;2.05;;;1.73;;
13263;SDS011;6700;51.988;7.646;2024-03-02T14:53:00;2.70;;;1.88;;
13263;SDS011;6700;51.988;7.646;2024-03-02T14:55:28;2.67;;;1.77;;
13263;SDS011;6700;51.988;7.646;2024-03-02T14:57:55;2.22;;;1.65;;
13263;SDS011;6700;51.988;7.646;2024-03-02T15:00:23;2.03;;;1.88;;
13263;SDS011;6700;51.988;7.646;2024-03-02T15:02:50;2.08;;;1.42;;
13263;SDS011;6700;51.988;7.646;2024-03-02T15:05:17;2.42;;;1.63;;
13263;SDS011;6700;51.988;7.646;2024-03-02T15:07:45;1.65;;;1.55;;
13263;SDS011;6700;51.988;7.646;2024-03-02T15:10:13;1.60;;;1.40;;
13263;SDS011;6700;51.988;7.646;2024-03-02T15:12:40;1.92;;;1.60;;
13263;SDS011;6700;51.988;7.646;2024-03-02T15:15:07;1.73;;;1.58;;
13263;SDS011;6700;51.988;7.646;2024-03-02T15:17:36;1.52;;;1.40;;
13263;SDS011;6700;51.988;7.646;2024-03-02T15:20:04;2.28;;;1.58;;
13263;SDS011;6700;51.988;7.646;2024-03-02T15:22:33;2.47;;;1.30;;
13263;SDS011;6700;51.988;7.646;2024-03-02T15:25:00;1.60;;;1.50;;
13263;SDS011;6700;51.988;7.646;2024-03-02T15:27:28;1.60;;;1.50;;
13263;SDS011;6700;51.988;7.646;2024-03-02T15:29:55;1.80;;;1.40;;
13263;SDS011;6700;51.988;7.646;2024-03-02T15:32:24;1.48;;;1.20;;
13263;SDS011;6700;51.988;7.646;2024-03-02T15:34:53;1.42;;;1.20;;
13263;SDS011;6700;51.988;7.646;2024-03-02T15:37:20;2.40;;;1.20;;
13263;SDS011;6700;51.988;7.646;2024-03-02T15:39:47;1.73;;;1.50;;